createdAt,value
2019-04-10T04:01:02.669Z,80.56
2019-04-10T04:02:01.689Z,80.65
2019-04-10T04:03:02.514Z,81.41
2019-04-10T04:04:02.039Z,81.41
2019-04-10T04:05:02.627Z,81.41
2019-04-10T04:06:03.517Z,81.88
2019-04-10T04:07:02.550Z,81.51
2019-04-10T04:08:04.072Z,81.32
2019-04-10T04:09:08.984Z,81.32
2019-04-10T04:10:03.060Z,80.94
2019-04-10T04:11:03.233Z,80.84
2019-04-10T04:12:04.386Z,80.84
2019-04-10T04:13:05.991Z,80.94
2019-04-10T04:14:04.045Z,81.51
2019-04-10T04:15:03.915Z,81.51
2019-04-10T04:16:04.083Z,81.98
2019-04-10T04:17:04.277Z,81.41
2019-04-10T04:18:04.562Z,80.94
2019-04-10T04:19:04.608Z,81.70
2019-04-10T04:20:04.779Z,81.51
2019-04-10T04:21:05.581Z,81.23
2019-04-10T04:22:06.088Z,80.84
2019-04-10T04:23:05.492Z,80.84
2019-04-10T04:24:05.460Z,81.41
2019-04-10T04:25:06.643Z,81.32
2019-04-10T04:26:05.795Z,81.41
2019-04-10T04:27:05.966Z,80.94
2019-04-10T04:28:06.684Z,80.75
2019-04-10T04:29:06.321Z,80.94
2019-04-10T04:30:06.496Z,80.56
2019-04-10T04:31:07.441Z,81.13
2019-04-10T04:32:07.032Z,81.13
2019-04-10T04:33:06.993Z,82.46
2019-04-10T04:34:07.167Z,82.17
2019-04-10T04:35:07.333Z,81.13
2019-04-10T04:36:08.195Z,81.23
2019-04-10T04:37:07.905Z,81.23
2019-04-10T04:38:07.847Z,81.04
2019-04-10T04:39:21.012Z,81.70
2019-04-10T04:40:09.038Z,80.94
2019-04-10T04:41:09.044Z,81.32
2019-04-10T04:42:09.261Z,80.75
2019-04-10T04:43:08.699Z,81.23
2019-04-10T04:44:08.870Z,82.27
2019-04-10T04:45:09.222Z,81.04
2019-04-10T04:46:10.090Z,81.41
2019-04-10T04:47:09.689Z,81.23
2019-04-10T04:48:09.858Z,80.94
2019-04-10T04:49:09.760Z,81.32
2019-04-10T04:50:09.932Z,81.41
2019-04-10T04:51:11.036Z,81.41
2019-04-10T04:52:12.728Z,81.41
2019-04-10T04:53:10.786Z,81.88
2019-04-10T04:54:10.612Z,81.41
2019-04-10T04:55:10.782Z,81.79
2019-04-10T04:56:11.497Z,81.60
2019-04-10T04:57:11.109Z,81.32
2019-04-10T04:58:11.798Z,81.70
2019-04-10T04:59:12.156Z,81.04
2019-04-10T05:00:11.618Z,81.23
2019-04-10T05:01:12.685Z,81.41
2019-04-10T05:02:12.231Z,81.32
2019-04-10T05:03:12.126Z,81.23
2019-04-10T05:04:13.111Z,81.41
2019-04-10T05:05:12.463Z,80.65
2019-04-10T05:06:12.630Z,81.51
2019-04-10T05:07:13.579Z,81.70
2019-04-10T05:08:13.227Z,81.88
2019-04-10T05:09:17.049Z,81.51
2019-04-10T05:10:13.334Z,80.94
2019-04-10T05:11:13.903Z,80.94
2019-04-10T05:12:13.647Z,81.70
2019-04-10T05:13:13.816Z,81.13
2019-04-10T05:14:13.998Z,81.32
2019-04-10T05:15:14.156Z,81.32
2019-04-10T05:16:14.490Z,81.32
2019-04-10T05:17:16.602Z,80.94
2019-04-10T05:18:14.706Z,80.94
2019-04-10T05:19:14.840Z,80.94
2019-04-10T05:20:15.011Z,81.23
2019-04-10T05:21:15.175Z,81.32
2019-04-10T05:22:15.348Z,81.23
2019-04-10T05:23:16.089Z,80.37
2019-04-10T05:24:15.836Z,80.94
2019-04-10T05:25:16.809Z,81.04
2019-04-10T05:26:16.564Z,80.46
2019-04-10T05:27:16.199Z,80.75
2019-04-10T05:28:16.476Z,80.84
2019-04-10T05:29:18.031Z,81.51
2019-04-10T05:30:16.737Z,81.51
2019-04-10T05:31:17.259Z,80.84
2019-04-10T05:32:17.831Z,80.75
2019-04-10T05:33:17.242Z,80.18
2019-04-10T05:34:17.787Z,80.08
2019-04-10T05:35:17.565Z,80.75
2019-04-10T05:36:17.732Z,80.08
2019-04-10T05:37:19.034Z,80.46
2019-04-10T05:38:18.756Z,80.08
2019-04-10T05:39:18.975Z,80.56
2019-04-10T05:40:19.417Z,79.90
2019-04-10T05:41:19.593Z,80.18
2019-04-10T05:42:18.765Z,80.41
2019-04-10T05:43:19.939Z,80.03
2019-04-10T05:44:20.127Z,80.13
2019-04-10T05:45:19.297Z,80.13
2019-04-10T05:46:19.447Z,79.55
2019-04-10T05:47:19.618Z,80.13
2019-04-10T05:48:22.507Z,79.74
2019-04-10T05:49:20.648Z,79.27
2019-04-10T05:50:20.125Z,79.65
2019-04-10T05:51:21.195Z,79.90
2019-04-10T05:52:20.454Z,80.08
2019-04-10T05:53:21.137Z,79.90
2019-04-10T05:54:20.802Z,79.99
2019-04-10T05:55:20.972Z,79.80
2019-04-10T05:56:21.133Z,79.90
2019-04-10T05:57:21.323Z,80.56
2019-04-10T05:58:21.834Z,80.51
2019-04-10T05:59:21.852Z,80.60
2019-04-10T06:00:22.903Z,79.74
2019-04-10T06:01:32.415Z,80.13
2019-04-10T06:02:23.052Z,79.84
2019-04-10T06:03:22.727Z,79.65
2019-04-10T06:04:22.498Z,79.27
2019-04-10T06:05:22.660Z,79.55
2019-04-10T06:06:22.841Z,79.74
2019-04-10T06:07:23.192Z,79.17
2019-04-10T06:08:23.727Z,79.12
2019-04-10T06:09:23.357Z,79.17
2019-04-10T06:10:24.545Z,79.03
2019-04-10T06:11:24.636Z,78.55
2019-04-10T06:12:24.347Z,78.83
2019-04-10T06:13:24.035Z,78.64
2019-04-10T06:14:24.281Z,79.03
2019-04-10T06:15:24.382Z,78.36
2019-04-10T06:16:24.549Z,78.45
2019-04-10T06:17:24.746Z,78.17
2019-04-10T06:18:25.021Z,77.89
2019-04-10T06:19:25.498Z,76.75
2019-04-10T06:20:25.235Z,77.60
2019-04-10T06:21:25.406Z,77.60
2019-04-10T06:22:26.458Z,77.31
2019-04-10T06:23:25.743Z,77.51
2019-04-10T06:24:25.925Z,77.03
2019-04-10T06:25:26.088Z,76.84
2019-04-10T06:26:26.361Z,77.17
2019-04-10T06:27:26.427Z,76.18
2019-04-10T06:28:27.934Z,76.12
2019-04-10T06:29:26.841Z,76.12
2019-04-10T06:30:27.982Z,76.03
2019-04-10T06:31:28.386Z,75.84
2019-04-10T06:32:27.576Z,75.84
2019-04-10T06:33:28.461Z,74.98
2019-04-10T06:34:27.625Z,74.60
2019-04-10T06:35:28.199Z,73.93
2019-04-10T06:36:28.893Z,74.88
2019-04-10T06:37:28.380Z,75.74
2019-04-10T06:38:28.723Z,75.93
2019-04-10T06:39:28.923Z,76.03
2019-04-10T06:40:29.396Z,74.41
2019-04-10T06:41:28.826Z,74.03
2019-04-10T06:42:29.580Z,74.41
2019-04-10T06:43:29.167Z,75.11
2019-04-10T06:44:30.115Z,73.74
2019-04-10T06:45:29.505Z,73.49
2019-04-10T06:46:30.743Z,72.22
2019-04-10T06:47:30.708Z,71.94
2019-04-10T06:48:30.057Z,73.21
2019-04-10T06:49:31.111Z,74.26
2019-04-10T06:50:31.477Z,74.07
2019-04-10T06:51:31.331Z,74.07
2019-04-10T06:52:30.693Z,72.83
2019-04-10T06:53:31.076Z,71.97
2019-04-10T06:54:31.089Z,71.41
2019-04-10T06:55:32.161Z,71.31
2019-04-10T06:56:31.373Z,71.41
2019-04-10T06:57:32.524Z,71.02
2019-04-10T06:58:31.956Z,71.25
2019-04-10T06:59:32.421Z,71.22
2019-04-10T07:00:32.744Z,71.02
2019-04-10T07:01:43.122Z,70.45
2019-04-10T07:02:33.848Z,71.63
2019-04-10T07:03:45.721Z,71.63
2019-04-10T07:04:43.994Z,72.49
2019-04-10T07:05:41.443Z,71.15
2019-04-10T07:06:47.199Z,69.73
2019-04-10T07:07:45.158Z,70.10
2019-04-10T07:08:34.092Z,69.54
2019-04-10T07:09:33.823Z,70.87
2019-04-10T07:10:45.906Z,70.77
2019-04-10T07:11:34.515Z,68.77
2019-04-10T07:12:34.204Z,68.77
2019-04-10T07:13:36.827Z,68.77
2019-04-10T07:14:36.876Z,68.40
2019-04-10T07:15:35.715Z,68.30
2019-04-10T07:16:35.745Z,68.11
2019-04-10T07:17:38.387Z,69.15
2019-04-10T07:18:37.184Z,68.87
2019-04-10T07:19:36.436Z,67.44
2019-04-10T07:20:35.470Z,67.25
2019-04-10T07:21:37.105Z,67.44
2019-04-10T07:22:36.612Z,68.68
2019-04-10T07:23:36.567Z,67.67
2019-04-10T07:24:39.682Z,67.86
2019-04-10T07:25:37.467Z,67.47
2019-04-10T07:26:41.614Z,67.57
2019-04-10T07:27:38.555Z,66.33
2019-04-10T07:28:38.995Z,66.56
2019-04-10T07:29:37.007Z,65.70
2019-04-10T07:30:38.061Z,65.36
2019-04-10T07:31:38.244Z,64.40
2019-04-10T07:32:42.112Z,63.29
2019-04-10T07:33:37.691Z,61.57
2019-04-10T07:34:37.850Z,61.22
2019-04-10T07:35:38.372Z,59.51
2019-04-10T07:36:41.671Z,59.60
2019-04-10T07:40:10.100Z,57.72
2019-04-10T07:41:16.662Z,56.32
2019-04-10T07:42:10.444Z,54.57
2019-04-10T07:43:11.161Z,55.34
2019-04-10T07:44:10.783Z,56.38
2019-04-10T07:45:10.954Z,56.70
2019-04-10T07:46:11.126Z,57.28
2019-04-10T07:47:11.297Z,56.04
2019-04-10T07:48:11.469Z,54.60
2019-04-10T07:49:11.685Z,54.63
2019-04-10T07:50:12.236Z,53.89
2019-04-10T07:51:11.982Z,53.03
2019-04-10T07:52:12.556Z,52.24
2019-04-10T07:53:12.789Z,53.13
2019-04-10T07:54:17.938Z,53.32
2019-04-10T07:55:12.932Z,53.22
2019-04-10T07:56:16.220Z,51.98
2019-04-10T07:57:13.827Z,52.34
2019-04-10T07:58:13.278Z,52.05
2019-04-10T07:59:13.347Z,52.43
2019-04-10T08:00:13.522Z,51.89
2019-04-10T08:01:14.090Z,52.15
2019-04-10T08:02:14.281Z,51.76
2019-04-10T08:03:14.650Z,52.62
2019-04-10T08:04:14.677Z,52.26
2019-04-10T08:05:14.457Z,50.93
2019-04-10T08:06:15.414Z,50.52
2019-04-10T08:07:24.976Z,50.84
2019-04-10T08:08:14.900Z,51.67
2019-04-10T08:09:15.069Z,52.08
2019-04-10T08:10:15.826Z,50.33
2019-04-10T08:11:15.505Z,50.81
2019-04-10T08:12:15.622Z,50.33
2019-04-10T08:13:16.178Z,49.69
2019-04-10T08:14:16.801Z,49.40
2019-04-10T08:15:16.798Z,50.07
2019-04-10T08:16:17.022Z,49.98
2019-04-10T08:17:16.467Z,49.43
2019-04-10T08:18:16.813Z,49.52
2019-04-10T08:19:16.795Z,50.07
2019-04-10T08:20:17.693Z,51.60
2019-04-10T08:21:17.752Z,51.91
2019-04-10T08:22:17.974Z,51.34
2019-04-10T08:23:17.584Z,50.07
2019-04-10T08:24:18.150Z,49.11
2019-04-10T08:25:18.458Z,49.02
2019-04-10T08:26:18.342Z,48.47
2019-04-10T08:27:19.257Z,48.28
2019-04-10T08:28:18.347Z,49.04
2019-04-10T08:29:18.521Z,49.14
2019-04-10T08:30:19.546Z,48.11
2019-04-10T08:31:19.041Z,46.77
2019-04-10T08:32:19.029Z,46.58
2019-04-10T08:33:19.564Z,47.08
2019-04-10T08:34:19.519Z,47.18
2019-04-10T08:35:19.553Z,46.80
2019-04-10T08:36:19.723Z,45.65
2019-04-10T08:37:20.708Z,46.22
2019-04-10T08:38:20.069Z,46.03
2019-04-10T08:39:32.593Z,46.77
2019-04-10T08:40:21.156Z,47.18
2019-04-10T08:41:21.294Z,46.84
2019-04-10T08:42:20.763Z,48.49
2019-04-10T08:43:20.940Z,49.38
2019-04-10T08:44:22.146Z,48.25
2019-04-10T08:45:21.282Z,46.82
2019-04-10T08:46:21.868Z,46.80
2019-04-10T08:47:22.489Z,46.61
2019-04-10T08:48:22.005Z,47.11
2019-04-10T08:49:22.893Z,47.68
2019-04-10T08:50:22.136Z,46.72
2019-04-10T08:51:23.416Z,46.15
2019-04-10T08:52:22.484Z,46.65
2019-04-10T08:53:22.659Z,45.59
2019-04-10T08:54:23.779Z,45.12
2019-04-10T08:55:23.987Z,44.76
2019-04-10T08:56:23.182Z,44.37
2019-04-10T08:57:23.517Z,44.78
2019-04-10T08:58:23.531Z,44.40
2019-04-10T08:59:23.779Z,43.13
2019-04-10T09:00:24.794Z,43.53
2019-04-10T09:01:25.044Z,43.65
2019-04-10T09:02:24.229Z,42.50
2019-04-10T09:03:24.621Z,41.83
2019-04-10T09:04:24.580Z,42.57
2019-04-10T09:05:25.727Z,42.77
2019-04-10T09:06:25.220Z,43.84
2019-04-10T09:07:26.250Z,42.88
2019-04-10T09:08:25.286Z,42.79
2019-04-10T09:09:25.738Z,42.02
2019-04-10T09:10:26.062Z,43.17
2019-04-10T09:11:29.446Z,43.84
2019-04-10T09:12:26.123Z,43.36
2019-04-10T09:13:26.316Z,43.19
2019-04-10T09:14:27.639Z,43.77
2019-04-10T09:15:26.740Z,42.81
2019-04-10T09:16:26.726Z,42.11
2019-04-10T09:17:27.107Z,42.23
2019-04-10T09:18:27.395Z,43.98
2019-04-10T09:19:27.723Z,41.94
2019-04-10T09:20:27.427Z,41.87
2019-04-10T09:21:28.135Z,41.35
2019-04-10T09:22:28.863Z,43.05
2019-04-10T09:23:38.920Z,42.86
2019-04-10T09:24:28.090Z,44.09
2019-04-10T09:25:28.257Z,44.42
2019-04-10T09:26:28.681Z,44.03
2019-04-10T09:27:28.944Z,43.44
2019-04-10T09:28:28.791Z,44.03
2019-04-10T09:29:29.831Z,43.65
2019-04-10T09:30:29.122Z,43.67
2019-04-10T09:31:29.500Z,42.64
2019-04-10T09:32:30.563Z,42.04
2019-04-10T09:33:31.251Z,42.43
2019-04-10T09:34:29.823Z,40.96
2019-04-10T09:35:30.885Z,40.10
2019-04-10T09:36:30.177Z,40.96
2019-04-10T09:37:31.197Z,41.80
2019-04-10T09:38:30.711Z,43.94
2019-04-10T09:39:31.751Z,43.91
2019-04-10T09:40:32.004Z,42.88
2019-04-10T09:41:32.021Z,42.21
2019-04-10T09:42:31.259Z,42.40
2019-04-10T09:43:31.756Z,42.30
2019-04-10T09:44:31.982Z,42.30
2019-04-10T09:45:31.795Z,42.61
2019-04-10T09:46:33.010Z,43.21
2019-04-10T09:47:32.535Z,43.21
2019-04-10T09:48:32.317Z,43.38
2019-04-10T09:49:38.952Z,42.52
2019-04-10T09:50:33.147Z,41.67
2019-04-10T09:51:34.105Z,40.81
2019-04-10T09:52:33.016Z,42.16
2019-04-10T09:53:33.191Z,40.64
2019-04-10T09:54:33.384Z,39.89
2019-04-10T09:55:33.539Z,40.37
2019-04-10T09:56:34.318Z,40.85
2019-04-10T09:57:34.614Z,41.16
2019-04-10T09:58:34.051Z,40.80
2019-04-10T09:59:36.832Z,40.51
2019-04-10T10:00:34.409Z,39.83
2019-04-10T10:01:34.579Z,38.87
2019-04-10T10:02:35.707Z,37.70
2019-04-10T10:03:34.929Z,37.97
2019-04-10T10:04:35.105Z,37.85
2019-04-10T10:05:35.277Z,38.91
2019-04-10T10:06:36.999Z,39.39
2019-04-10T10:07:36.792Z,39.39
2019-04-10T10:08:35.986Z,38.24
2019-04-10T10:09:35.984Z,38.72
2019-04-10T10:10:37.244Z,39.85
2019-04-10T10:11:36.401Z,40.33
2019-04-10T10:12:36.541Z,39.35
2019-04-10T10:13:37.335Z,38.81
2019-04-10T10:14:37.950Z,39.29
2019-04-10T10:15:37.678Z,38.14
2019-04-10T10:16:37.212Z,37.47
2019-04-10T10:17:37.391Z,37.87
2019-04-10T10:18:37.563Z,37.76
2019-04-10T10:19:39.189Z,37.76
2019-04-10T10:20:37.915Z,37.97
2019-04-10T10:21:38.825Z,38.78
2019-04-10T10:22:39.026Z,37.79
2019-04-10T10:23:38.445Z,37.62
2019-04-10T10:24:38.618Z,37.52
2019-04-10T10:25:39.438Z,36.95
2019-04-10T10:26:39.824Z,36.19
2019-04-10T10:27:39.147Z,35.24
2019-04-10T10:28:39.547Z,35.64
2019-04-10T10:29:39.506Z,36.02
2019-04-10T10:30:39.785Z,34.77
2019-04-10T10:31:40.262Z,34.66
2019-04-10T10:32:40.039Z,34.66
2019-04-10T10:33:40.215Z,34.67
2019-04-10T10:34:40.824Z,33.42
2019-04-10T10:35:41.119Z,33.53
2019-04-10T10:36:43.420Z,34.88
2019-04-10T10:37:41.070Z,34.42
2019-04-10T10:38:41.174Z,35.27
2019-04-10T10:39:41.278Z,35.00
2019-04-10T10:40:41.490Z,33.15
2019-04-10T10:41:42.542Z,33.25
2019-04-10T10:42:41.814Z,33.17
2019-04-10T10:43:42.602Z,32.51
2019-04-10T10:44:42.493Z,32.68
2019-04-10T10:45:42.879Z,33.45
2019-04-10T10:46:42.526Z,35.00
2019-04-10T10:47:42.706Z,34.42
2019-04-10T10:48:44.085Z,33.65
2019-04-10T10:49:43.061Z,33.21
2019-04-10T10:50:43.573Z,34.75
2019-04-10T10:51:43.420Z,35.81
2019-04-10T10:52:43.874Z,36.29
2019-04-10T10:53:44.068Z,35.64
2019-04-10T10:54:43.952Z,34.86
2019-04-10T10:55:44.132Z,33.81
2019-04-10T10:56:44.721Z,33.53
2019-04-10T10:57:44.492Z,33.63
2019-04-10T10:58:44.667Z,33.82
2019-04-10T10:59:45.974Z,33.81
2019-04-10T11:00:45.218Z,33.98
2019-04-10T11:01:46.066Z,34.37
2019-04-10T11:02:45.610Z,34.96
2019-04-10T11:03:46.597Z,35.73
2019-04-10T11:04:45.738Z,33.71
2019-04-10T11:05:46.472Z,34.01
2019-04-10T11:06:54.193Z,33.61
2019-04-10T11:07:47.074Z,33.33
2019-04-10T11:08:46.457Z,34.98
2019-04-10T11:09:46.631Z,33.53
2019-04-10T11:10:50.698Z,34.11
2019-04-10T11:11:47.167Z,33.73
2019-04-10T11:12:48.128Z,33.34
2019-04-10T11:13:48.414Z,33.33
2019-04-10T11:14:48.187Z,34.69
2019-04-10T11:15:48.481Z,34.77
2019-04-10T11:16:47.883Z,34.77
2019-04-10T11:17:48.061Z,33.42
2019-04-10T11:18:48.436Z,34.92
2019-04-10T11:19:48.775Z,36.35
2019-04-10T11:20:48.607Z,37.45
2019-04-10T11:21:49.654Z,38.01
2019-04-10T11:22:49.621Z,38.85
2019-04-10T11:23:49.465Z,39.91
2019-04-10T11:24:49.422Z,40.56
2019-04-10T11:25:50.341Z,42.10
2019-04-10T11:26:50.402Z,41.69
2019-04-10T11:27:50.221Z,42.55
2019-04-10T11:28:50.040Z,43.13
2019-04-10T11:29:51.051Z,42.29
2019-04-10T11:30:50.880Z,41.50
2019-04-10T11:31:50.575Z,41.50
2019-04-10T11:32:50.818Z,42.14
2019-04-10T11:33:54.962Z,42.34
2019-04-10T11:34:51.106Z,44.06
2019-04-10T11:35:51.566Z,44.54
2019-04-10T11:37:15.627Z,44.45
2019-04-10T11:37:54.234Z,43.76
2019-04-10T11:38:54.833Z,44.90
2019-04-10T11:39:51.987Z,44.71
2019-04-10T11:40:55.109Z,45.19
2019-04-10T11:41:52.729Z,44.13
2019-04-10T11:42:53.790Z,45.17
2019-04-10T11:43:55.420Z,45.17
2019-04-10T11:44:54.455Z,45.36
2019-04-10T11:45:56.232Z,45.34
2019-04-10T11:46:55.634Z,46.22
2019-04-10T11:47:53.390Z,46.70
2019-04-10T11:48:55.365Z,46.98
2019-04-10T11:49:56.652Z,45.76
2019-04-10T11:50:59.137Z,45.02
2019-04-10T11:51:56.717Z,44.45
2019-04-10T11:52:56.725Z,43.59
2019-04-10T12:32:38.982Z,37.27
2019-04-10T12:33:38.802Z,38.32
2019-04-10T12:34:38.977Z,38.43
2019-04-10T12:35:40.249Z,38.45
2019-04-10T12:36:39.526Z,37.97
2019-04-10T12:37:39.505Z,37.52
2019-04-10T12:38:39.682Z,36.58
2019-04-10T12:39:39.856Z,36.21
2019-04-10T12:40:40.499Z,36.33
2019-04-10T12:41:40.212Z,34.80
2019-04-10T12:42:40.675Z,35.46
2019-04-10T12:43:41.095Z,34.86
2019-04-10T12:44:40.925Z,34.27
2019-04-10T12:45:40.920Z,35.70
2019-04-10T12:46:41.498Z,36.47
2019-04-10T12:47:41.951Z,36.64
2019-04-10T12:48:41.460Z,36.62
2019-04-10T12:49:41.629Z,36.82
2019-04-10T12:50:41.805Z,37.47
2019-04-10T12:51:41.982Z,37.93
2019-04-10T12:52:42.880Z,38.87
2019-04-10T12:53:43.523Z,39.43
2019-04-10T12:54:42.747Z,39.31
2019-04-10T12:55:43.699Z,39.98
2019-04-10T12:56:42.874Z,41.23
2019-04-10T12:57:43.454Z,41.33
2019-04-10T12:58:43.227Z,42.19
2019-04-10T12:59:43.716Z,42.19
2019-04-10T13:00:44.582Z,42.10
2019-04-10T13:01:44.806Z,40.94
2019-04-10T13:02:44.852Z,42.10
2019-04-10T13:03:44.149Z,41.97
2019-04-10T13:04:44.933Z,41.88
2019-04-10T13:05:45.210Z,43.53
2019-04-10T13:06:44.631Z,41.88
2019-04-10T13:07:45.607Z,41.88
2019-04-10T13:08:57.092Z,42.36
2019-04-10T13:09:46.253Z,42.27
2019-04-10T13:10:45.564Z,41.97
2019-04-10T13:11:45.508Z,41.11
2019-04-10T13:12:45.699Z,41.40
2019-04-10T13:13:46.329Z,42.27
2019-04-10T13:14:46.495Z,42.27
2019-04-10T13:15:46.209Z,41.28
2019-04-10T13:16:46.383Z,41.77
2019-04-10T13:17:46.967Z,42.41
2019-04-10T13:18:46.885Z,43.08
2019-04-10T13:19:46.912Z,43.56
2019-04-10T13:20:48.270Z,43.08
2019-04-10T13:21:47.261Z,42.99
2019-04-10T13:22:48.480Z,43.47
2019-04-10T13:23:47.611Z,43.27
2019-04-10T13:24:47.975Z,43.27
2019-04-10T13:25:55.539Z,44.04
2019-04-10T13:26:48.185Z,43.73
2019-04-10T13:27:48.306Z,43.26
2019-04-10T13:28:48.481Z,43.54
2019-04-10T13:29:48.863Z,44.31
2019-04-10T13:30:53.256Z,44.50
2019-04-10T13:31:49.006Z,45.84
2019-04-10T13:32:50.087Z,46.61
2019-04-10T13:33:49.350Z,46.89
2019-04-10T13:34:49.519Z,45.94
2019-04-10T13:35:49.709Z,44.40
2019-04-10T13:36:49.851Z,43.08
2019-04-10T13:37:50.647Z,43.18
2019-04-10T13:38:50.582Z,42.60
2019-04-10T13:39:50.972Z,42.91
2019-04-10T13:40:50.561Z,42.60
2019-04-10T13:41:50.711Z,42.51
2019-04-10T13:42:51.579Z,42.22
2019-04-10T13:43:51.880Z,41.72
2019-04-10T13:44:51.190Z,42.40
2019-04-10T13:45:52.052Z,42.30
2019-04-10T13:46:51.523Z,43.04
2019-04-10T13:47:51.699Z,43.33
2019-04-10T13:48:51.849Z,43.33
2019-04-10T13:49:52.548Z,44.38
2019-04-10T13:50:52.192Z,44.09
2019-04-10T13:51:52.367Z,44.67
2019-04-10T13:52:53.702Z,44.95
2019-04-10T13:53:52.714Z,44.79
2019-04-10T13:54:52.888Z,45.36
2019-04-10T13:55:53.055Z,45.45
2019-04-10T13:56:53.233Z,45.07
2019-04-10T13:57:53.406Z,44.43
2019-04-10T13:58:53.579Z,44.04
2019-04-10T13:59:53.750Z,43.76
2019-04-10T14:00:53.937Z,43.95
2019-04-10T14:01:54.313Z,44.23
2019-04-10T14:02:54.282Z,43.63
2019-04-10T14:03:54.534Z,43.83
2019-04-10T14:04:55.511Z,43.63
2019-04-10T14:05:54.872Z,44.21
2019-04-10T14:06:55.637Z,44.12
2019-04-10T14:07:55.176Z,45.29
2019-04-10T14:09:13.154Z,45.19
2019-04-10T14:09:56.486Z,45.38
2019-04-10T14:10:55.679Z,43.56
2019-04-10T14:11:55.850Z,43.08
2019-04-10T14:12:56.860Z,43.10
2019-04-10T14:13:56.195Z,43.03
2019-04-10T14:14:57.309Z,41.52
2019-04-10T14:15:56.545Z,40.84
2019-04-10T14:16:57.263Z,40.48
2019-04-10T14:17:57.712Z,38.96
2019-04-10T14:18:57.150Z,38.59
2019-04-10T14:19:58.881Z,38.22
2019-04-10T14:20:57.560Z,38.24
2019-04-10T14:21:57.594Z,36.32
2019-04-10T14:22:57.901Z,36.05
2019-04-10T14:23:57.935Z,36.43
2019-04-10T14:24:58.975Z,35.97
2019-04-10T14:25:58.323Z,35.12
2019-04-10T14:26:58.460Z,35.60
2019-04-10T14:27:58.639Z,34.74
2019-04-10T14:28:59.678Z,34.64
2019-04-10T14:29:58.989Z,34.45
2019-04-10T14:30:59.982Z,35.81
2019-04-10T14:31:59.331Z,35.77
2019-04-10T14:32:59.506Z,35.08
2019-04-10T14:33:59.672Z,34.70
2019-04-10T14:35:00.957Z,35.76
2019-04-10T14:36:00.075Z,35.49
2019-04-10T14:37:01.126Z,35.60
2019-04-10T14:38:01.023Z,34.74
2019-04-10T14:39:10.209Z,34.64
2019-04-10T14:40:02.024Z,34.53
2019-04-10T14:41:01.170Z,35.39
2019-04-10T14:42:02.236Z,34.99
2019-04-10T14:43:01.272Z,35.66
2019-04-10T14:44:01.916Z,36.51
2019-04-10T14:45:01.617Z,37.47
2019-04-10T14:46:02.670Z,36.13
2019-04-10T14:47:02.279Z,36.40
2019-04-10T14:48:02.141Z,38.02
2019-04-10T14:49:02.790Z,38.22
2019-04-10T14:50:02.498Z,38.59
2019-04-10T14:51:02.672Z,37.72
2019-04-10T14:52:03.187Z,38.10
2019-04-10T14:53:03.031Z,38.04
2019-04-10T14:54:03.740Z,37.47
2019-04-10T14:55:04.048Z,36.62
2019-04-10T14:56:04.043Z,36.54
2019-04-10T14:57:04.345Z,36.93
2019-04-10T14:58:03.909Z,36.54
2019-04-10T14:59:04.085Z,35.02
2019-04-10T15:00:04.347Z,34.29
2019-04-10T15:01:08.120Z,34.30
2019-04-10T15:02:04.610Z,31.72
2019-04-10T15:03:04.792Z,31.35
2019-04-10T15:04:04.966Z,31.81
2019-04-10T15:05:05.738Z,32.18
2019-04-10T15:06:05.321Z,33.53
2019-04-10T15:07:06.034Z,33.50
2019-04-10T15:08:05.691Z,34.35
2019-04-10T15:09:06.221Z,35.20
2019-04-10T15:10:06.034Z,35.00
2019-04-10T15:11:06.705Z,34.35
2019-04-10T15:12:07.277Z,34.27
2019-04-10T15:13:10.264Z,35.04
2019-04-10T15:14:07.712Z,34.56
2019-04-10T15:15:07.821Z,34.06
2019-04-10T15:16:07.202Z,34.74
2019-04-10T15:17:07.977Z,34.45
2019-04-10T15:18:08.743Z,34.74
2019-04-10T15:19:07.986Z,33.54
2019-04-10T15:20:08.964Z,34.70
2019-04-10T15:21:08.002Z,35.14
2019-04-10T15:22:08.194Z,36.07
2019-04-10T15:23:08.370Z,36.46
2019-04-10T15:24:08.931Z,36.82
2019-04-10T15:25:08.891Z,37.40
2019-04-10T15:26:08.894Z,38.54
2019-04-10T15:27:09.072Z,38.62
2019-04-10T15:28:10.388Z,38.60
2019-04-10T15:29:09.429Z,38.91
2019-04-10T15:30:10.521Z,39.48
2019-04-10T15:31:10.844Z,39.48
2019-04-10T15:32:10.596Z,39.79
2019-04-10T15:33:10.183Z,39.70
2019-04-10T15:34:10.318Z,39.60
2019-04-10T15:35:10.535Z,39.33
2019-04-10T15:36:11.583Z,39.12
2019-04-10T15:37:11.037Z,38.74
2019-04-10T15:38:11.705Z,38.81
2019-04-10T15:39:11.209Z,39.77
2019-04-10T15:40:18.575Z,41.11
2019-04-10T15:41:11.558Z,40.64
2019-04-10T15:42:12.047Z,39.47
2019-04-10T15:43:12.636Z,39.73
2019-04-10T15:44:12.094Z,40.23
2019-04-10T15:45:12.811Z,40.35
2019-04-10T15:46:12.883Z,39.39
2019-04-10T15:47:18.235Z,38.93
2019-04-10T15:48:12.811Z,38.18
2019-04-10T15:49:13.206Z,37.82
2019-04-10T15:50:13.874Z,37.72
2019-04-10T15:51:14.138Z,37.60
2019-04-10T15:52:14.431Z,37.87
2019-04-10T15:53:13.823Z,39.68
2019-04-10T15:54:13.882Z,39.08
2019-04-10T15:55:15.237Z,39.06
2019-04-10T15:56:14.235Z,40.48
2019-04-10T15:57:14.415Z,41.05
2019-04-10T15:58:15.015Z,41.53
2019-04-10T15:59:14.764Z,40.38
2019-04-10T16:00:14.959Z,40.59
2019-04-10T16:01:15.977Z,40.90
2019-04-10T16:02:15.438Z,41.28
2019-04-10T16:03:15.524Z,40.50
2019-04-10T16:04:15.646Z,40.48
2019-04-10T16:05:15.823Z,40.67
2019-04-10T16:06:15.993Z,40.46
2019-04-10T16:07:16.169Z,41.41
2019-04-10T16:08:16.360Z,42.56
2019-04-10T16:09:16.929Z,43.62
2019-04-10T16:10:16.938Z,45.12
2019-04-10T16:11:17.395Z,45.03
2019-04-10T16:12:17.058Z,44.55
2019-04-10T16:13:17.229Z,44.17
2019-04-10T16:14:22.806Z,44.26
2019-04-10T16:15:17.573Z,45.03
2019-04-10T16:16:17.751Z,45.41
2019-04-10T16:17:17.928Z,45.22
2019-04-10T16:18:18.963Z,45.22
2019-04-10T16:19:18.372Z,45.05
2019-04-10T16:20:19.579Z,44.02
2019-04-10T16:21:18.632Z,44.98
2019-04-10T16:22:19.211Z,45.36
2019-04-10T16:23:18.983Z,44.31
2019-04-10T16:24:19.157Z,45.17
2019-04-10T16:25:19.941Z,44.79
2019-04-10T16:26:19.508Z,45.24
2019-04-10T16:27:20.159Z,44.86
2019-04-10T16:28:20.750Z,45.72
2019-04-10T16:29:20.286Z,45.15
2019-04-10T16:30:20.214Z,44.86
2019-04-10T16:31:21.356Z,44.86
2019-04-10T16:32:21.034Z,44.76
2019-04-10T16:33:20.745Z,46.01
2019-04-10T16:34:20.919Z,45.24
2019-04-10T16:35:21.145Z,44.57
2019-04-10T16:36:21.409Z,44.36
2019-04-10T16:37:22.163Z,45.03
2019-04-10T16:38:22.639Z,45.12
2019-04-10T16:39:22.218Z,46.56
2019-04-10T16:40:22.669Z,45.12
2019-04-10T16:41:22.155Z,45.31
2019-04-10T16:42:22.387Z,44.81
2019-04-10T16:43:22.494Z,45.20
2019-04-10T16:44:22.669Z,44.91
2019-04-10T16:45:22.847Z,45.17
2019-04-10T16:46:23.812Z,45.48
2019-04-10T16:47:23.197Z,45.67
2019-04-10T16:48:24.674Z,44.81
2019-04-10T16:49:24.570Z,44.70
2019-04-10T16:50:23.741Z,45.08
2019-04-10T16:51:24.009Z,45.20
2019-04-10T16:52:25.039Z,46.06
2019-04-10T16:53:24.247Z,46.63
2019-04-10T16:54:25.049Z,45.67
2019-04-10T16:55:24.866Z,45.48
2019-04-10T16:56:25.469Z,45.39
2019-04-10T16:57:24.956Z,46.03
2019-04-10T16:58:25.589Z,45.75
2019-04-10T16:59:25.583Z,46.80
2019-04-10T17:00:25.512Z,47.18
2019-04-10T17:01:26.733Z,46.70
2019-04-10T17:02:26.344Z,46.13
2019-04-10T17:03:26.042Z,47.34
2019-04-10T17:04:26.221Z,48.39
2019-04-10T17:05:26.397Z,48.11
2019-04-10T17:06:26.569Z,49.26
2019-04-10T17:07:27.254Z,48.68
2019-04-10T17:08:27.867Z,48.78
2019-04-10T17:09:27.091Z,49.54
2019-04-10T17:10:27.978Z,49.33
2019-04-10T17:11:27.438Z,50.95
2019-04-10T17:12:27.610Z,49.99
2019-04-10T17:13:28.668Z,49.99
2019-04-10T17:14:29.227Z,50.67
2019-04-10T17:15:28.279Z,50.85
2019-04-10T17:16:29.314Z,51.04
2019-04-10T17:17:28.484Z,51.04
2019-04-10T17:18:28.652Z,51.52
2019-04-10T17:19:28.864Z,51.90
2019-04-10T17:20:29.000Z,51.81
2019-04-10T17:21:30.753Z,52.07
2019-04-10T17:22:37.301Z,52.64
2019-04-10T17:23:29.522Z,53.02
2019-04-10T17:24:29.694Z,51.50
2019-04-10T17:25:30.494Z,50.92
2019-04-10T17:26:31.007Z,51.50
2019-04-10T17:27:30.215Z,52.16
2019-04-10T17:28:30.393Z,52.64
2019-04-10T17:29:31.299Z,52.64
2019-04-10T17:30:30.733Z,52.73
2019-04-10T17:31:30.904Z,53.12
2019-04-10T17:32:31.238Z,52.92
2019-04-10T17:33:32.274Z,53.12
2019-04-10T17:34:32.557Z,52.92
2019-04-10T17:35:31.747Z,52.92
2019-04-10T17:36:32.802Z,52.83